sensor_id;sensor_type;location;lat;lon;timestamp;P1;durP1;ratioP1;P2;durP2;ratioP2
69161;SDS011;56269;51.738;21.652;2023-04-20T00:01:51;12.57;;;4.93;;
69161;SDS011;56269;51.738;21.652;2023-04-20T00:04:17;10.55;;;4.70;;
69161;SDS011;56269;51.738;21.652;2023-04-20T00:06:43;12.63;;;4.88;;
69161;SDS011;56269;51.738;21.652;2023-04-20T00:09:11;13.30;;;5.35;;
69161;SDS011;56269;51.738;21.652;2023-04-20T00:11:38;12.40;;;5.40;;
69161;SDS011;56269;51.738;21.652;2023-04-20T00:14:04;10.57;;;4.60;;
69161;SDS011;56269;51.738;21.652;2023-04-20T00:16:30;11.20;;;4.80;;
69161;SDS011;56269;51.738;21.652;2023-04-20T00:18:58;11.13;;;4.53;;
69161;SDS011;56269;51.738;21.652;2023-04-20T00:21:24;12.82;;;5.35;;
69161;SDS011;56269;51.738;21.652;2023-04-20T00:23:51;12.80;;;5.55;;
69161;SDS011;56269;51.738;21.652;2023-04-20T00:26:17;13.60;;;4.90;;
69161;SDS011;56269;51.738;21.652;2023-04-20T00:28:44;10.13;;;4.45;;
69161;SDS011;56269;51.738;21.652;2023-04-20T00:31:10;10.20;;;4.93;;
69161;SDS011;56269;51.738;21.652;2023-04-20T00:33:36;13.65;;;5.47;;
69161;SDS011;56269;51.738;21.652;2023-04-20T00:36:02;12.20;;;5.33;;
69161;SDS011;56269;51.738;21.652;2023-04-20T00:38:29;14.50;;;5.57;;
69161;SDS011;56269;51.738;21.652;2023-04-20T00:40:55;14.02;;;5.60;;
69161;SDS011;56269;51.738;21.652;2023-04-20T00:43:21;12.02;;;5.15;;
69161;SDS011;56269;51.738;21.652;2023-04-20T00:45:47;13.65;;;5.20;;
69161;SDS011;56269;51.738;21.652;2023-04-20T00:48:17;14.02;;;5.50;;
69161;SDS011;56269;51.738;21.652;2023-04-20T00:50:44;12.13;;;5.50;;
69161;SDS011;56269;51.738;21.652;2023-04-20T00:53:11;13.68;;;5.70;;
69161;SDS011;56269;51.738;21.652;2023-04-20T00:55:38;13.82;;;6.07;;
69161;SDS011;56269;51.738;21.652;2023-04-20T00:58:07;13.57;;;6.10;;
69161;SDS011;56269;51.738;21.652;2023-04-20T01:00:33;11.27;;;5.32;;
69161;SDS011;56269;51.738;21.652;2023-04-20T01:03:00;11.73;;;5.20;;
69161;SDS011;56269;51.738;21.652;2023-04-20T01:05:26;11.98;;;5.07;;
69161;SDS011;56269;51.738;21.652;2023-04-20T01:07:53;11.40;;;5.65;;
69161;SDS011;56269;51.738;21.652;2023-04-20T01:10:18;14.98;;;5.22;;
69161;SDS011;56269;51.738;21.652;2023-04-20T01:12:45;11.87;;;5.83;;
69161;SDS011;56269;51.738;21.652;2023-04-20T01:15:11;14.20;;;5.82;;
69161;SDS011;56269;51.738;21.652;2023-04-20T01:17:37;10.75;;;5.25;;
69161;SDS011;56269;51.738;21.652;2023-04-20T01:20:04;13.15;;;5.72;;
69161;SDS011;56269;51.738;21.652;2023-04-20T01:22:42;12.07;;;5.85;;
69161;SDS011;56269;51.738;21.652;2023-04-20T01:25:09;11.70;;;5.50;;
69161;SDS011;56269;51.738;21.652;2023-04-20T01:27:35;13.63;;;5.90;;
69161;SDS011;56269;51.738;21.652;2023-04-20T01:30:01;13.18;;;6.40;;
69161;SDS011;56269;51.738;21.652;2023-04-20T01:32:27;11.75;;;5.80;;
69161;SDS011;56269;51.738;21.652;2023-04-20T01:34:53;12.05;;;5.45;;
69161;SDS011;56269;51.738;21.652;2023-04-20T01:37:20;10.73;;;5.37;;
69161;SDS011;56269;51.738;21.652;2023-04-20T01:39:46;16.15;;;6.47;;
69161;SDS011;56269;51.738;21.652;2023-04-20T01:42:12;13.35;;;5.70;;
69161;SDS011;56269;51.738;21.652;2023-04-20T01:44:38;13.25;;;5.50;;
69161;SDS011;56269;51.738;21.652;2023-04-20T01:47:05;11.80;;;5.47;;
69161;SDS011;56269;51.738;21.652;2023-04-20T01:49:31;11.50;;;5.40;;
69161;SDS011;56269;51.738;21.652;2023-04-20T01:51:57;12.80;;;5.80;;
69161;SDS011;56269;51.738;21.652;2023-04-20T01:54:23;13.13;;;5.85;;
69161;SDS011;56269;51.738;21.652;2023-04-20T01:56:49;17.00;;;6.28;;
69161;SDS011;56269;51.738;21.652;2023-04-20T01:59:17;12.50;;;5.35;;
69161;SDS011;56269;51.738;21.652;2023-04-20T02:01:44;14.43;;;5.57;;
69161;SDS011;56269;51.738;21.652;2023-04-20T02:04:10;13.60;;;5.75;;
69161;SDS011;56269;51.738;21.652;2023-04-20T02:06:36;10.98;;;4.82;;
69161;SDS011;56269;51.738;21.652;2023-04-20T02:09:02;14.60;;;6.05;;
69161;SDS011;56269;51.738;21.652;2023-04-20T02:11:28;13.27;;;5.70;;
69161;SDS011;56269;51.738;21.652;2023-04-20T02:13:54;16.00;;;5.95;;
69161;SDS011;56269;51.738;21.652;2023-04-20T02:16:21;13.50;;;5.75;;
69161;SDS011;56269;51.738;21.652;2023-04-20T02:18:48;11.48;;;5.90;;
69161;SDS011;56269;51.738;21.652;2023-04-20T02:21:14;12.82;;;5.70;;
69161;SDS011;56269;51.738;21.652;2023-04-20T02:23:40;13.27;;;6.53;;
69161;SDS011;56269;51.738;21.652;2023-04-20T02:26:07;14.20;;;5.40;;
69161;SDS011;56269;51.738;21.652;2023-04-20T02:28:32;15.90;;;6.60;;
69161;SDS011;56269;51.738;21.652;2023-04-20T02:30:59;13.63;;;6.40;;
69161;SDS011;56269;51.738;21.652;2023-04-20T02:33:25;15.63;;;6.63;;
69161;SDS011;56269;51.738;21.652;2023-04-20T02:35:51;13.52;;;6.05;;
69161;SDS011;56269;51.738;21.652;2023-04-20T02:38:17;15.88;;;6.32;;
69161;SDS011;56269;51.738;21.652;2023-04-20T02:40:44;13.93;;;6.18;;
69161;SDS011;56269;51.738;21.652;2023-04-20T02:43:10;15.15;;;6.18;;
69161;SDS011;56269;51.738;21.652;2023-04-20T02:45:38;16.23;;;6.47;;
69161;SDS011;56269;51.738;21.652;2023-04-20T02:48:04;13.60;;;5.80;;
69161;SDS011;56269;51.738;21.652;2023-04-20T02:50:31;12.18;;;5.85;;
69161;SDS011;56269;51.738;21.652;2023-04-20T02:52:57;13.98;;;5.93;;
69161;SDS011;56269;51.738;21.652;2023-04-20T02:55:23;12.30;;;6.38;;
69161;SDS011;56269;51.738;21.652;2023-04-20T02:57:49;14.03;;;5.70;;
69161;SDS011;56269;51.738;21.652;2023-04-20T03:00:15;12.85;;;6.18;;
69161;SDS011;56269;51.738;21.652;2023-04-20T03:02:41;13.15;;;6.47;;
69161;SDS011;56269;51.738;21.652;2023-04-20T03:05:08;14.70;;;6.20;;
69161;SDS011;56269;51.738;21.652;2023-04-20T03:07:36;13.77;;;5.90;;
69161;SDS011;56269;51.738;21.652;2023-04-20T03:10:02;11.48;;;5.75;;
69161;SDS011;56269;51.738;21.652;2023-04-20T03:12:29;14.00;;;6.00;;
69161;SDS011;56269;51.738;21.652;2023-04-20T03:14:56;14.45;;;6.40;;
69161;SDS011;56269;51.738;21.652;2023-04-20T03:17:22;12.63;;;5.95;;
69161;SDS011;56269;51.738;21.652;2023-04-20T03:19:49;12.70;;;6.07;;
69161;SDS011;56269;51.738;21.652;2023-04-20T03:22:15;13.30;;;5.80;;
69161;SDS011;56269;51.738;21.652;2023-04-20T03:24:44;13.32;;;6.00;;
69161;SDS011;56269;51.738;21.652;2023-04-20T03:27:10;13.65;;;6.25;;
69161;SDS011;56269;51.738;21.652;2023-04-20T03:29:36;12.50;;;5.65;;
69161;SDS011;56269;51.738;21.652;2023-04-20T03:32:02;11.80;;;5.93;;
69161;SDS011;56269;51.738;21.652;2023-04-20T03:34:28;13.10;;;6.07;;
69161;SDS011;56269;51.738;21.652;2023-04-20T03:36:54;14.75;;;6.15;;
69161;SDS011;56269;51.738;21.652;2023-04-20T03:39:21;14.25;;;6.38;;
69161;SDS011;56269;51.738;21.652;2023-04-20T03:41:47;13.70;;;6.10;;
69161;SDS011;56269;51.738;21.652;2023-04-20T03:44:13;13.05;;;6.00;;
69161;SDS011;56269;51.738;21.652;2023-04-20T03:46:39;14.07;;;6.75;;
69161;SDS011;56269;51.738;21.652;2023-04-20T03:49:06;14.52;;;6.35;;
69161;SDS011;56269;51.738;21.652;2023-04-20T03:51:32;12.95;;;5.88;;
69161;SDS011;56269;51.738;21.652;2023-04-20T03:53:58;13.43;;;6.00;;
69161;SDS011;56269;51.738;21.652;2023-04-20T03:56:26;13.38;;;5.93;;
69161;SDS011;56269;51.738;21.652;2023-04-20T03:58:53;13.82;;;6.38;;
69161;SDS011;56269;51.738;21.652;2023-04-20T04:01:19;12.15;;;5.93;;
69161;SDS011;56269;51.738;21.652;2023-04-20T04:03:45;14.35;;;6.72;;
69161;SDS011;56269;51.738;21.652;2023-04-20T04:06:11;13.27;;;6.00;;
69161;SDS011;56269;51.738;21.652;2023-04-20T04:08:38;12.38;;;6.25;;
69161;SDS011;56269;51.738;21.652;2023-04-20T04:11:04;17.02;;;6.65;;
69161;SDS011;56269;51.738;21.652;2023-04-20T04:13:30;16.25;;;6.63;;
69161;SDS011;56269;51.738;21.652;2023-04-20T04:15:56;11.80;;;5.75;;
69161;SDS011;56269;51.738;21.652;2023-04-20T04:18:23;13.70;;;5.93;;
69161;SDS011;56269;51.738;21.652;2023-04-20T04:20:49;13.30;;;6.07;;
69161;SDS011;56269;51.738;21.652;2023-04-20T04:23:16;14.05;;;6.55;;
69161;SDS011;56269;51.738;21.652;2023-04-20T04:25:42;12.30;;;5.95;;
69161;SDS011;56269;51.738;21.652;2023-04-20T04:28:08;13.70;;;6.30;;
69161;SDS011;56269;51.738;21.652;2023-04-20T04:30:34;15.07;;;6.07;;
69161;SDS011;56269;51.738;21.652;2023-04-20T04:33:00;14.15;;;5.63;;
69161;SDS011;56269;51.738;21.652;2023-04-20T04:35:29;14.35;;;6.03;;
69161;SDS011;56269;51.738;21.652;2023-04-20T04:37:56;12.50;;;5.60;;
69161;SDS011;56269;51.738;21.652;2023-04-20T04:40:22;12.38;;;5.53;;
69161;SDS011;56269;51.738;21.652;2023-04-20T04:42:48;14.30;;;5.30;;
69161;SDS011;56269;51.738;21.652;2023-04-20T04:45:15;14.50;;;5.40;;
69161;SDS011;56269;51.738;21.652;2023-04-20T04:47:43;12.38;;;5.35;;
69161;SDS011;56269;51.738;21.652;2023-04-20T04:50:09;15.43;;;6.45;;
69161;SDS011;56269;51.738;21.652;2023-04-20T04:52:36;13.20;;;5.43;;
69161;SDS011;56269;51.738;21.652;2023-04-20T04:55:02;11.63;;;5.23;;
69161;SDS011;56269;51.738;21.652;2023-04-20T04:57:33;13.55;;;4.68;;
69161;SDS011;56269;51.738;21.652;2023-04-20T04:59:59;11.77;;;5.13;;
69161;SDS011;56269;51.738;21.652;2023-04-20T05:02:26;15.30;;;5.43;;
69161;SDS011;56269;51.738;21.652;2023-04-20T05:04:52;9.80;;;4.32;;
69161;SDS011;56269;51.738;21.652;2023-04-20T05:07:18;13.57;;;4.80;;
69161;SDS011;56269;51.738;21.652;2023-04-20T05:09:44;14.40;;;4.82;;
69161;SDS011;56269;51.738;21.652;2023-04-20T05:12:10;12.98;;;4.40;;
69161;SDS011;56269;51.738;21.652;2023-04-20T05:14:36;10.77;;;4.63;;
69161;SDS011;56269;51.738;21.652;2023-04-20T05:17:02;15.17;;;4.80;;
69161;SDS011;56269;51.738;21.652;2023-04-20T05:19:28;15.00;;;5.30;;
69161;SDS011;56269;51.738;21.652;2023-04-20T05:21:55;17.63;;;4.70;;
69161;SDS011;56269;51.738;21.652;2023-04-20T05:24:21;16.17;;;4.70;;
69161;SDS011;56269;51.738;21.652;2023-04-20T05:26:47;14.90;;;4.82;;
69161;SDS011;56269;51.738;21.652;2023-04-20T05:29:13;19.70;;;4.73;;
69161;SDS011;56269;51.738;21.652;2023-04-20T05:31:41;12.93;;;4.78;;
69161;SDS011;56269;51.738;21.652;2023-04-20T05:34:07;12.77;;;5.10;;
69161;SDS011;56269;51.738;21.652;2023-04-20T05:36:33;12.05;;;4.85;;
69161;SDS011;56269;51.738;21.652;2023-04-20T05:39:00;14.00;;;4.40;;
69161;SDS011;56269;51.738;21.652;2023-04-20T05:41:26;10.88;;;4.80;;
69161;SDS011;56269;51.738;21.652;2023-04-20T05:43:53;12.57;;;4.43;;
69161;SDS011;56269;51.738;21.652;2023-04-20T05:46:20;12.40;;;4.57;;
69161;SDS011;56269;51.738;21.652;2023-04-20T05:48:47;12.35;;;4.50;;
69161;SDS011;56269;51.738;21.652;2023-04-20T05:51:14;10.97;;;4.27;;
69161;SDS011;56269;51.738;21.652;2023-04-20T05:53:40;10.00;;;4.38;;
69161;SDS011;56269;51.738;21.652;2023-04-20T05:56:06;12.45;;;4.28;;
69161;SDS011;56269;51.738;21.652;2023-04-20T05:58:33;13.52;;;4.35;;
69161;SDS011;56269;51.738;21.652;2023-04-20T06:01:00;14.10;;;4.43;;
69161;SDS011;56269;51.738;21.652;2023-04-20T06:03:28;12.77;;;4.57;;
69161;SDS011;56269;51.738;21.652;2023-04-20T06:05:57;13.02;;;5.18;;
69161;SDS011;56269;51.738;21.652;2023-04-20T06:08:24;11.68;;;4.30;;
69161;SDS011;56269;51.738;21.652;2023-04-20T06:10:54;14.10;;;5.13;;
69161;SDS011;56269;51.738;21.652;2023-04-20T06:13:21;13.40;;;4.60;;
69161;SDS011;56269;51.738;21.652;2023-04-20T06:15:48;12.60;;;3.87;;
69161;SDS011;56269;51.738;21.652;2023-04-20T06:18:14;14.98;;;4.57;;
69161;SDS011;56269;51.738;21.652;2023-04-20T06:20:43;13.80;;;4.43;;
69161;SDS011;56269;51.738;21.652;2023-04-20T06:23:10;11.75;;;3.55;;
69161;SDS011;56269;51.738;21.652;2023-04-20T06:25:37;15.93;;;4.40;;
69161;SDS011;56269;51.738;21.652;2023-04-20T06:28:03;12.07;;;4.33;;
69161;SDS011;56269;51.738;21.652;2023-04-20T06:30:33;12.85;;;4.10;;
69161;SDS011;56269;51.738;21.652;2023-04-20T06:33:00;14.13;;;3.92;;
69161;SDS011;56269;51.738;21.652;2023-04-20T06:35:26;11.35;;;3.65;;
69161;SDS011;56269;51.738;21.652;2023-04-20T06:37:52;12.80;;;3.67;;
69161;SDS011;56269;51.738;21.652;2023-04-20T06:40:22;7.87;;;3.00;;
69161;SDS011;56269;51.738;21.652;2023-04-20T06:42:51;14.05;;;4.45;;
69161;SDS011;56269;51.738;21.652;2023-04-20T06:45:18;13.80;;;3.90;;
69161;SDS011;56269;51.738;21.652;2023-04-20T06:47:44;13.00;;;4.10;;
69161;SDS011;56269;51.738;21.652;2023-04-20T06:50:11;11.60;;;3.50;;
69161;SDS011;56269;51.738;21.652;2023-04-20T06:52:38;7.90;;;2.67;;
69161;SDS011;56269;51.738;21.652;2023-04-20T06:55:05;12.35;;;3.70;;
69161;SDS011;56269;51.738;21.652;2023-04-20T06:57:32;12.82;;;3.75;;
69161;SDS011;56269;51.738;21.652;2023-04-20T06:59:59;12.98;;;3.63;;
69161;SDS011;56269;51.738;21.652;2023-04-20T07:02:25;11.95;;;3.15;;
69161;SDS011;56269;51.738;21.652;2023-04-20T07:04:52;8.73;;;3.17;;
69161;SDS011;56269;51.738;21.652;2023-04-20T07:07:25;6.47;;;2.33;;
69161;SDS011;56269;51.738;21.652;2023-04-20T07:09:52;8.63;;;3.50;;
69161;SDS011;56269;51.738;21.652;2023-04-20T07:12:18;12.75;;;3.88;;
69161;SDS011;56269;51.738;21.652;2023-04-20T07:14:45;12.55;;;4.00;;
69161;SDS011;56269;51.738;21.652;2023-04-20T07:17:11;12.43;;;3.57;;
69161;SDS011;56269;51.738;21.652;2023-04-20T07:19:37;11.40;;;3.40;;
69161;SDS011;56269;51.738;21.652;2023-04-20T07:22:03;10.80;;;3.67;;
69161;SDS011;56269;51.738;21.652;2023-04-20T07:24:29;12.88;;;3.80;;
69161;SDS011;56269;51.738;21.652;2023-04-20T07:26:55;13.55;;;3.70;;
69161;SDS011;56269;51.738;21.652;2023-04-20T07:29:22;11.23;;;3.87;;
69161;SDS011;56269;51.738;21.652;2023-04-20T07:31:48;12.70;;;3.70;;
69161;SDS011;56269;51.738;21.652;2023-04-20T07:34:14;12.80;;;3.25;;
69161;SDS011;56269;51.738;21.652;2023-04-20T07:36:40;11.18;;;3.22;;
69161;SDS011;56269;51.738;21.652;2023-04-20T07:39:06;13.55;;;3.70;;
69161;SDS011;56269;51.738;21.652;2023-04-20T07:41:33;16.27;;;3.80;;
69161;SDS011;56269;51.738;21.652;2023-04-20T07:43:59;10.50;;;3.70;;
69161;SDS011;56269;51.738;21.652;2023-04-20T07:46:25;11.95;;;3.70;;
69161;SDS011;56269;51.738;21.652;2023-04-20T07:48:53;11.57;;;3.50;;
69161;SDS011;56269;51.738;21.652;2023-04-20T07:51:19;15.63;;;3.70;;
69161;SDS011;56269;51.738;21.652;2023-04-20T07:53:45;14.25;;;4.00;;
69161;SDS011;56269;51.738;21.652;2023-04-20T07:56:11;19.02;;;4.60;;
69161;SDS011;56269;51.738;21.652;2023-04-20T07:58:38;14.93;;;3.88;;
69161;SDS011;56269;51.738;21.652;2023-04-20T08:01:05;9.82;;;3.58;;
69161;SDS011;56269;51.738;21.652;2023-04-20T08:03:32;8.20;;;2.37;;
69161;SDS011;56269;51.738;21.652;2023-04-20T08:05:59;12.02;;;3.70;;
69161;SDS011;56269;51.738;21.652;2023-04-20T08:08:25;14.90;;;4.20;;
69161;SDS011;56269;51.738;21.652;2023-04-20T08:10:52;14.18;;;3.90;;
69161;SDS011;56269;51.738;21.652;2023-04-20T08:13:18;12.15;;;3.95;;
69161;SDS011;56269;51.738;21.652;2023-04-20T08:15:44;13.70;;;3.47;;
69161;SDS011;56269;51.738;21.652;2023-04-20T08:18:10;16.15;;;3.83;;
69161;SDS011;56269;51.738;21.652;2023-04-20T08:20:36;15.15;;;3.80;;
69161;SDS011;56269;51.738;21.652;2023-04-20T08:23:03;11.68;;;3.65;;
69161;SDS011;56269;51.738;21.652;2023-04-20T08:25:29;12.68;;;3.33;;
69161;SDS011;56269;51.738;21.652;2023-04-20T08:27:57;12.20;;;3.80;;
69161;SDS011;56269;51.738;21.652;2023-04-20T08:30:23;11.75;;;3.88;;
69161;SDS011;56269;51.738;21.652;2023-04-20T08:32:49;11.25;;;3.80;;
69161;SDS011;56269;51.738;21.652;2023-04-20T08:35:15;12.80;;;3.15;;
69161;SDS011;56269;51.738;21.652;2023-04-20T08:37:42;13.50;;;3.97;;
69161;SDS011;56269;51.738;21.652;2023-04-20T08:40:08;14.00;;;3.60;;
69161;SDS011;56269;51.738;21.652;2023-04-20T08:42:35;9.57;;;2.72;;
69161;SDS011;56269;51.738;21.652;2023-04-20T08:45:01;8.30;;;3.00;;
69161;SDS011;56269;51.738;21.652;2023-04-20T08:47:28;7.68;;;2.50;;
69161;SDS011;56269;51.738;21.652;2023-04-20T08:49:55;13.43;;;3.30;;
69161;SDS011;56269;51.738;21.652;2023-04-20T08:52:24;10.10;;;2.87;;
69161;SDS011;56269;51.738;21.652;2023-04-20T08:54:50;10.75;;;3.00;;
69161;SDS011;56269;51.738;21.652;2023-04-20T08:57:16;10.98;;;2.70;;
69161;SDS011;56269;51.738;21.652;2023-04-20T08:59:42;9.30;;;2.83;;
69161;SDS011;56269;51.738;21.652;2023-04-20T09:02:12;9.25;;;2.20;;
69161;SDS011;56269;51.738;21.652;2023-04-20T09:04:39;12.50;;;2.90;;
69161;SDS011;56269;51.738;21.652;2023-04-20T09:07:06;10.82;;;2.53;;
69161;SDS011;56269;51.738;21.652;2023-04-20T09:09:51;6.55;;;2.20;;
69161;SDS011;56269;51.738;21.652;2023-04-20T09:12:22;8.18;;;2.80;;
69161;SDS011;56269;51.738;21.652;2023-04-20T09:14:49;9.07;;;2.83;;
69161;SDS011;56269;51.738;21.652;2023-04-20T09:17:17;8.70;;;2.70;;
69161;SDS011;56269;51.738;21.652;2023-04-20T09:19:55;6.43;;;2.38;;
69161;SDS011;56269;51.738;21.652;2023-04-20T09:22:28;8.98;;;2.88;;
69161;SDS011;56269;51.738;21.652;2023-04-20T09:24:58;12.70;;;2.72;;
69161;SDS011;56269;51.738;21.652;2023-04-20T09:27:25;13.40;;;2.80;;
69161;SDS011;56269;51.738;21.652;2023-04-20T09:29:55;13.43;;;2.80;;
69161;SDS011;56269;51.738;21.652;2023-04-20T09:32:26;11.93;;;2.60;;
69161;SDS011;56269;51.738;21.652;2023-04-20T09:34:53;7.70;;;2.53;;
69161;SDS011;56269;51.738;21.652;2023-04-20T09:37:19;10.85;;;2.50;;
69161;SDS011;56269;51.738;21.652;2023-04-20T09:39:47;9.60;;;2.67;;
69161;SDS011;56269;51.738;21.652;2023-04-20T09:42:14;5.97;;;1.87;;
69161;SDS011;56269;51.738;21.652;2023-04-20T09:44:41;8.73;;;2.25;;
69161;SDS011;56269;51.738;21.652;2023-04-20T09:47:09;9.43;;;2.67;;
69161;SDS011;56269;51.738;21.652;2023-04-20T09:49:44;10.73;;;3.22;;
69161;SDS011;56269;51.738;21.652;2023-04-20T09:52:16;8.63;;;2.60;;
69161;SDS011;56269;51.738;21.652;2023-04-20T09:54:43;11.27;;;2.60;;
69161;SDS011;56269;51.738;21.652;2023-04-20T09:57:10;9.63;;;2.78;;
69161;SDS011;56269;51.738;21.652;2023-04-20T09:59:40;6.22;;;2.28;;
69161;SDS011;56269;51.738;21.652;2023-04-20T10:02:08;9.65;;;2.35;;
69161;SDS011;56269;51.738;21.652;2023-04-20T10:04:36;8.63;;;3.10;;
69161;SDS011;56269;51.738;21.652;2023-04-20T10:07:03;10.10;;;3.90;;
69161;SDS011;56269;51.738;21.652;2023-04-20T10:09:31;7.28;;;3.00;;
69161;SDS011;56269;51.738;21.652;2023-04-20T10:12:05;9.20;;;3.45;;
69161;SDS011;56269;51.738;21.652;2023-04-20T10:14:33;6.72;;;2.22;;
69161;SDS011;56269;51.738;21.652;2023-04-20T10:17:01;8.88;;;2.45;;
69161;SDS011;56269;51.738;21.652;2023-04-20T10:19:37;5.43;;;2.17;;
69161;SDS011;56269;51.738;21.652;2023-04-20T10:22:04;8.40;;;2.70;;
69161;SDS011;56269;51.738;21.652;2023-04-20T10:24:31;9.00;;;2.53;;
69161;SDS011;56269;51.738;21.652;2023-04-20T10:26:57;6.40;;;2.38;;
69161;SDS011;56269;51.738;21.652;2023-04-20T10:29:27;9.48;;;2.63;;
69161;SDS011;56269;51.738;21.652;2023-04-20T10:31:54;9.40;;;2.87;;
69161;SDS011;56269;51.738;21.652;2023-04-20T10:34:33;8.15;;;2.22;;
69161;SDS011;56269;51.738;21.652;2023-04-20T10:37:10;10.50;;;3.47;;
69161;SDS011;56269;51.738;21.652;2023-04-20T10:39:47;13.32;;;5.03;;
69161;SDS011;56269;51.738;21.652;2023-04-20T10:42:13;10.30;;;3.55;;
69161;SDS011;56269;51.738;21.652;2023-04-20T10:44:49;8.83;;;2.90;;
69161;SDS011;56269;51.738;21.652;2023-04-20T10:47:26;8.65;;;2.70;;
69161;SDS011;56269;51.738;21.652;2023-04-20T10:49:54;6.32;;;2.45;;
69161;SDS011;56269;51.738;21.652;2023-04-20T10:52:33;7.35;;;2.10;;
69161;SDS011;56269;51.738;21.652;2023-04-20T10:55:00;9.20;;;3.08;;
69161;SDS011;56269;51.738;21.652;2023-04-20T10:57:28;10.97;;;2.90;;
69161;SDS011;56269;51.738;21.652;2023-04-20T10:59:54;9.38;;;2.50;;
69161;SDS011;56269;51.738;21.652;2023-04-20T11:02:20;7.18;;;3.25;;
69161;SDS011;56269;51.738;21.652;2023-04-20T11:04:46;7.82;;;2.75;;
69161;SDS011;56269;51.738;21.652;2023-04-20T11:07:13;8.05;;;2.60;;
69161;SDS011;56269;51.738;21.652;2023-04-20T11:09:39;8.23;;;3.27;;
69161;SDS011;56269;51.738;21.652;2023-04-20T11:12:08;10.90;;;3.70;;
69161;SDS011;56269;51.738;21.652;2023-04-20T11:14:49;8.40;;;2.90;;
69161;SDS011;56269;51.738;21.652;2023-04-20T11:17:17;9.05;;;3.33;;
69161;SDS011;56269;51.738;21.652;2023-04-20T11:19:43;9.57;;;3.10;;
69161;SDS011;56269;51.738;21.652;2023-04-20T11:22:19;6.27;;;1.97;;
69161;SDS011;56269;51.738;21.652;2023-04-20T11:24:46;9.10;;;2.60;;
69161;SDS011;56269;51.738;21.652;2023-04-20T11:27:19;7.45;;;2.58;;
69161;SDS011;56269;51.738;21.652;2023-04-20T11:29:54;7.18;;;2.33;;
69161;SDS011;56269;51.738;21.652;2023-04-20T11:32:22;8.50;;;2.80;;
69161;SDS011;56269;51.738;21.652;2023-04-20T11:34:57;10.70;;;3.10;;
69161;SDS011;56269;51.738;21.652;2023-04-20T11:37:27;10.57;;;3.50;;
69161;SDS011;56269;51.738;21.652;2023-04-20T11:40:02;7.38;;;3.05;;
69161;SDS011;56269;51.738;21.652;2023-04-20T11:42:33;6.28;;;2.50;;
69161;SDS011;56269;51.738;21.652;2023-04-20T11:44:59;8.88;;;3.40;;
69161;SDS011;56269;51.738;21.652;2023-04-20T11:47:25;10.30;;;4.03;;
69161;SDS011;56269;51.738;21.652;2023-04-20T11:49:52;8.60;;;3.15;;
69161;SDS011;56269;51.738;21.652;2023-04-20T11:52:18;7.45;;;2.75;;
69161;SDS011;56269;51.738;21.652;2023-04-20T11:54:44;6.25;;;2.35;;
69161;SDS011;56269;51.738;21.652;2023-04-20T11:57:10;6.53;;;2.47;;
69161;SDS011;56269;51.738;21.652;2023-04-20T11:59:37;7.67;;;2.67;;
69161;SDS011;56269;51.738;21.652;2023-04-20T12:02:03;9.77;;;3.00;;
69161;SDS011;56269;51.738;21.652;2023-04-20T12:04:30;8.20;;;2.83;;
69161;SDS011;56269;51.738;21.652;2023-04-20T12:06:58;7.03;;;2.60;;
69161;SDS011;56269;51.738;21.652;2023-04-20T12:09:25;9.98;;;2.95;;
69161;SDS011;56269;51.738;21.652;2023-04-20T12:11:51;9.70;;;3.40;;
69161;SDS011;56269;51.738;21.652;2023-04-20T12:14:18;7.68;;;3.30;;
69161;SDS011;56269;51.738;21.652;2023-04-20T12:16:44;5.82;;;2.42;;
69161;SDS011;56269;51.738;21.652;2023-04-20T12:19:10;9.55;;;3.22;;
69161;SDS011;56269;51.738;21.652;2023-04-20T12:21:38;7.82;;;3.10;;
69161;SDS011;56269;51.738;21.652;2023-04-20T12:24:04;7.53;;;2.80;;
69161;SDS011;56269;51.738;21.652;2023-04-20T12:26:31;6.85;;;2.80;;
69161;SDS011;56269;51.738;21.652;2023-04-20T12:28:58;6.93;;;2.75;;
69161;SDS011;56269;51.738;21.652;2023-04-20T12:31:25;7.53;;;3.08;;
69161;SDS011;56269;51.738;21.652;2023-04-20T12:33:51;7.82;;;3.38;;
69161;SDS011;56269;51.738;21.652;2023-04-20T12:36:17;7.97;;;2.80;;
69161;SDS011;56269;51.738;21.652;2023-04-20T12:38:43;9.60;;;3.40;;
69161;SDS011;56269;51.738;21.652;2023-04-20T12:41:13;8.25;;;2.90;;
69161;SDS011;56269;51.738;21.652;2023-04-20T12:43:40;8.05;;;3.40;;
69161;SDS011;56269;51.738;21.652;2023-04-20T12:46:07;6.40;;;2.40;;
69161;SDS011;56269;51.738;21.652;2023-04-20T12:48:33;8.77;;;3.13;;
69161;SDS011;56269;51.738;21.652;2023-04-20T12:50:59;9.07;;;3.50;;
69161;SDS011;56269;51.738;21.652;2023-04-20T12:53:25;5.53;;;2.38;;
69161;SDS011;56269;51.738;21.652;2023-04-20T12:55:52;9.65;;;3.80;;
69161;SDS011;56269;51.738;21.652;2023-04-20T12:58:18;9.45;;;3.70;;
69161;SDS011;56269;51.738;21.652;2023-04-20T13:00:44;6.43;;;2.20;;
69161;SDS011;56269;51.738;21.652;2023-04-20T13:03:10;6.97;;;3.25;;
69161;SDS011;56269;51.738;21.652;2023-04-20T13:05:39;7.68;;;3.03;;
69161;SDS011;56269;51.738;21.652;2023-04-20T13:08:05;10.55;;;3.10;;
69161;SDS011;56269;51.738;21.652;2023-04-20T13:10:31;6.65;;;2.72;;
69161;SDS011;56269;51.738;21.652;2023-04-20T13:12:57;10.00;;;3.80;;
69161;SDS011;56269;51.738;21.652;2023-04-20T13:15:26;8.60;;;2.45;;
69161;SDS011;56269;51.738;21.652;2023-04-20T13:17:52;7.47;;;3.60;;
69161;SDS011;56269;51.738;21.652;2023-04-20T13:20:18;6.30;;;2.90;;
69161;SDS011;56269;51.738;21.652;2023-04-20T13:22:45;7.15;;;3.20;;
69161;SDS011;56269;51.738;21.652;2023-04-20T13:25:11;8.70;;;3.27;;
69161;SDS011;56269;51.738;21.652;2023-04-20T13:27:37;8.38;;;3.65;;
69161;SDS011;56269;51.738;21.652;2023-04-20T13:30:04;6.82;;;2.72;;
69161;SDS011;56269;51.738;21.652;2023-04-20T13:32:32;8.50;;;3.95;;
69161;SDS011;56269;51.738;21.652;2023-04-20T13:34:59;7.30;;;3.28;;
69161;SDS011;56269;51.738;21.652;2023-04-20T13:37:25;9.47;;;3.60;;
69161;SDS011;56269;51.738;21.652;2023-04-20T13:39:52;7.47;;;3.10;;
69161;SDS011;56269;51.738;21.652;2023-04-20T13:42:18;7.57;;;3.50;;
69161;SDS011;56269;51.738;21.652;2023-04-20T13:44:45;7.70;;;3.38;;
69161;SDS011;56269;51.738;21.652;2023-04-20T13:47:11;7.90;;;3.17;;
69161;SDS011;56269;51.738;21.652;2023-04-20T13:49:37;9.00;;;3.73;;
69161;SDS011;56269;51.738;21.652;2023-04-20T13:52:03;8.35;;;3.42;;
69161;SDS011;56269;51.738;21.652;2023-04-20T13:54:30;7.63;;;2.67;;
69161;SDS011;56269;51.738;21.652;2023-04-20T13:56:56;11.40;;;3.58;;
69161;SDS011;56269;51.738;21.652;2023-04-20T13:59:22;8.70;;;3.70;;
69161;SDS011;56269;51.738;21.652;2023-04-20T14:01:48;8.97;;;3.53;;
69161;SDS011;56269;51.738;21.652;2023-04-20T14:04:15;8.25;;;3.95;;
69161;SDS011;56269;51.738;21.652;2023-04-20T14:06:41;9.35;;;3.47;;
69161;SDS011;56269;51.738;21.652;2023-04-20T14:09:07;8.77;;;3.72;;
69161;SDS011;56269;51.738;21.652;2023-04-20T14:11:33;8.50;;;4.00;;
69161;SDS011;56269;51.738;21.652;2023-04-20T14:14:00;7.93;;;3.50;;
69161;SDS011;56269;51.738;21.652;2023-04-20T14:16:26;7.45;;;3.75;;
69161;SDS011;56269;51.738;21.652;2023-04-20T14:18:52;9.48;;;3.92;;
69161;SDS011;56269;51.738;21.652;2023-04-20T14:21:18;10.70;;;4.40;;
69161;SDS011;56269;51.738;21.652;2023-04-20T14:23:45;9.82;;;3.70;;
69161;SDS011;56269;51.738;21.652;2023-04-20T14:26:11;7.30;;;3.73;;